Time;durP1;ratioP1;P1;durP2;ratioP2;P2;SDS_P1;SDS_P2;PMS_P1;PMS_P2;Temp;Humidity;BMP_temperature;BMP_pressure;BME280_temperature;BME280_humidity;BME280_pressure;Samples;Min_cycle;Max_cycle;Signal;HPM_P1;HPM_P2
2024/04/06 00:00:49;;;;;;;1.40;0.70;;;;;;;14.50;100.00;100352.84;5175902;28;20083;-75
2024/04/06 00:03:19;;;;;;;2.10;0.90;;;;;;;14.37;100.00;100358.84;5184672;28;20155;-74
2024/04/06 00:05:49;;;;;;;2.15;1.05;;;;;;;14.31;100.00;100365.31;5183621;28;20095;-73
2024/04/06 00:08:20;;;;;;;1.13;0.65;;;;;;;14.27;100.00;100355.03;5203098;28;20318;-74
2024/04/06 00:10:50;;;;;;;1.60;0.75;;;;;;;14.23;100.00;100366.66;5203213;28;20511;-74
2024/04/06 00:13:20;;;;;;;1.30;0.80;;;;;;;14.27;100.00;100357.66;5183320;28;20107;-75
2024/04/06 00:15:51;;;;;;;2.22;0.82;;;;;;;14.29;100.00;100361.88;5199949;28;20032;-74
2024/04/06 00:18:21;;;;;;;2.22;0.88;;;;;;;14.29;100.00;100361.88;5204090;28;20053;-74
2024/04/06 00:20:51;;;;;;;1.60;0.88;;;;;;;14.21;100.00;100355.34;5204824;28;20025;-74
2024/04/06 00:23:22;;;;;;;1.10;0.63;;;;;;;14.15;100.00;100359.16;5207190;28;20403;-74
2024/04/06 00:25:52;;;;;;;1.58;0.73;;;;;;;14.19;100.00;100359.84;5205721;28;20036;-74
2024/04/06 00:28:22;;;;;;;1.40;0.60;;;;;;;14.15;100.00;100364.41;5205993;28;20033;-74
2024/04/06 00:30:54;;;;;;;2.70;0.63;;;;;;;14.27;100.00;100357.66;5180338;28;20317;-75
2024/04/06 00:33:25;;;;;;;1.05;0.57;;;;;;;14.28;100.00;100361.97;5198851;28;20280;-74
2024/04/06 00:35:55;;;;;;;0.82;0.60;;;;;;;14.33;100.00;100367.84;5202682;28;20381;-74
2024/04/06 00:38:25;;;;;;;1.30;0.57;;;;;;;14.45;100.00;100361.91;5199228;28;20040;-74
2024/04/06 00:40:55;;;;;;;2.13;0.98;;;;;;;14.44;100.00;100366.31;5197148;28;20045;-73
2024/04/06 00:43:28;;;;;;;2.13;1.10;;;;;;;14.38;100.00;100371.06;5201474;28;20119;-73
2024/04/06 00:45:58;;;;;;;1.30;0.52;;;;;;;14.39;100.00;100375.41;5197573;28;20021;-75
2024/04/06 00:48:29;;;;;;;2.90;0.85;;;;;;;14.39;100.00;100378.88;5197969;28;20080;-74
2024/04/06 00:51:05;;;;;;;1.02;0.60;;;;;;;14.45;100.00;100373.28;5197513;28;20411;-74
2024/04/06 00:53:35;;;;;;;1.75;0.70;;;;;;;14.49;100.00;100384.47;5198888;28;20040;-74
2024/04/06 00:56:06;;;;;;;1.50;0.52;;;;;;;14.51;100.00;100387.88;5185617;28;20017;-73
2024/04/06 00:58:36;;;;;;;1.92;0.80;;;;;;;14.47;100.00;100392.47;5201607;28;20083;-74
2024/04/06 01:01:06;;;;;;;1.52;0.80;;;;;;;14.43;100.00;100395.34;5197871;28;20039;-74
2024/04/06 01:03:37;;;;;;;1.52;0.80;;;;;;;14.39;100.00;100402.53;5197979;28;20063;-72
2024/04/06 01:06:07;;;;;;;2.15;0.77;;;;;;;14.32;100.00;100395.06;5183390;28;20021;-74
2024/04/06 01:08:40;;;;;;;1.55;0.80;;;;;;;14.28;100.00;100404.06;5198203;28;20032;-72
2024/04/06 01:11:10;;;;;;;2.25;1.02;;;;;;;14.18;100.00;100403.69;5195576;28;20033;-72
2024/04/06 01:13:40;;;;;;;1.52;0.60;;;;;;;14.06;100.00;100416.59;5198696;28;20044;-74
2024/04/06 01:16:11;;;;;;;1.70;0.70;;;;;;;14.03;100.00;100414.09;5198862;28;20654;-72
2024/04/06 01:18:41;;;;;;;3.72;0.60;;;;;;;13.92;100.00;100412.03;5198826;28;20039;-74
2024/04/06 01:21:11;;;;;;;2.25;0.68;;;;;;;13.88;100.00;100413.13;5197467;28;20473;-73
2024/04/06 01:23:43;;;;;;;1.33;0.60;;;;;;;13.74;100.00;100414.78;5198656;28;20293;-74
2024/04/06 01:26:13;;;;;;;0.95;0.40;;;;;;;13.63;100.00;100423.19;5198295;28;20081;-74
2024/04/06 01:28:43;;;;;;;1.35;0.60;;;;;;;13.59;100.00;100421.63;5198426;28;20449;-74
2024/04/06 01:31:14;;;;;;;1.92;0.80;;;;;;;13.50;100.00;100410.75;5204029;28;20021;-74
2024/04/06 01:33:49;;;;;;;2.10;0.70;;;;;;;13.44;100.00;100417.13;5201561;28;20048;-74
2024/04/06 01:36:20;;;;;;;1.13;0.70;;;;;;;13.36;100.00;100398.31;5198552;28;20064;-74
2024/04/06 01:38:50;;;;;;;1.65;0.90;;;;;;;13.41;100.00;100411.22;5180187;28;20057;-74
2024/04/06 01:41:21;;;;;;;2.08;0.70;;;;;;;13.41;100.00;100412.03;5197765;28;20029;-74
2024/04/06 01:43:51;;;;;;;1.33;0.77;;;;;;;13.44;100.00;100414.50;5198638;28;20021;-72
2024/04/06 01:46:22;;;;;;;2.50;0.75;;;;;;;13.41;100.00;100419.09;5201617;28;20029;-74
2024/04/06 01:48:52;;;;;;;1.75;0.77;;;;;;;13.48;100.00;100423.09;5198800;28;20029;-72
2024/04/06 01:51:23;;;;;;;0.95;0.70;;;;;;;13.58;100.00;100419.09;5181790;28;20040;-74
2024/04/06 01:53:53;;;;;;;2.30;0.65;;;;;;;13.60;100.00;100423.31;5198590;28;20274;-72
2024/04/06 01:56:26;;;;;;;1.48;0.68;;;;;;;13.61;100.00;100424.19;5198274;28;20022;-74
2024/04/06 01:58:56;;;;;;;1.48;0.73;;;;;;;13.59;100.00;100421.63;5198042;28;20047;-74
2024/04/06 02:01:26;;;;;;;2.47;0.65;;;;;;;13.46;100.00;100415.31;5202205;28;20033;-74
2024/04/06 02:03:57;;;;;;;1.52;0.70;;;;;;;13.38;100.00;100409.59;5196605;28;20470;-74
2024/04/06 02:06:27;;;;;;;1.38;0.70;;;;;;;13.38;100.00;100420.09;5198475;28;20028;-74
2024/04/06 02:08:57;;;;;;;1.30;0.68;;;;;;;13.35;100.00;100416.75;5197798;28;20120;-74
2024/04/06 02:11:28;;;;;;;0.93;0.57;;;;;;;13.28;100.00;100421.47;5200218;28;20453;-74
2024/04/06 02:13:58;;;;;;;0.75;0.57;;;;;;;13.18;100.00;100421.97;5201793;28;20041;-74
2024/04/06 02:16:28;;;;;;;1.13;0.70;;;;;;;13.14;100.00;100425.69;5200265;28;20035;-74
2024/04/06 02:18:58;;;;;;;0.68;0.50;;;;;;;12.97;100.00;100427.41;5197264;28;20045;-74
2024/04/06 02:21:29;;;;;;;2.45;0.70;;;;;;;12.83;100.00;100438.50;5200112;28;20029;-74
2024/04/06 02:23:59;;;;;;;1.33;0.60;;;;;;;12.73;100.00;100442.50;5198561;28;20116;-74
2024/04/06 02:26:29;;;;;;;1.65;0.70;;;;;;;12.72;100.00;100446.03;5196569;28;20857;-74
2024/04/06 02:29:00;;;;;;;1.05;0.50;;;;;;;12.74;100.00;100444.19;5198828;28;20459;-75
2024/04/06 02:31:30;;;;;;;0.93;0.45;;;;;;;12.66;100.00;100454.16;5199245;28;20025;-75
2024/04/06 02:34:00;;;;;;;0.80;0.55;;;;;;;12.65;100.00;100449.03;5180257;28;20103;-74
2024/04/06 02:36:30;;;;;;;1.20;0.70;;;;;;;12.54;100.00;100453.88;5202564;28;20580;-75
2024/04/06 02:39:03;;;;;;;1.35;0.70;;;;;;;12.57;100.00;100452.00;5182968;28;21069;-74
2024/04/06 02:41:33;;;;;;;0.95;0.50;;;;;;;12.55;100.00;100456.44;5181298;28;20033;-73
2024/04/06 02:44:03;;;;;;;0.82;0.60;;;;;;;12.40;100.00;100456.28;5181914;28;20369;-75
2024/04/06 02:46:34;;;;;;;0.88;0.57;;;;;;;12.39;100.00;100458.06;5199057;28;20116;-74
2024/04/06 02:49:04;;;;;;;0.70;0.50;;;;;;;12.43;100.00;100456.16;5200601;28;20067;-74
2024/04/06 02:51:34;;;;;;;1.55;0.60;;;;;;;12.46;100.00;100454.22;5179623;28;20495;-75
2024/04/06 02:54:05;;;;;;;2.05;0.70;;;;;;;12.45;100.00;100451.69;5199287;28;20530;-72
2024/04/06 02:56:35;;;;;;;0.93;0.52;;;;;;;12.42;100.00;100455.31;5179152;28;20029;-74
2024/04/06 02:59:05;;;;;;;1.13;0.60;;;;;;;12.40;100.00;100454.53;5200945;28;20029;-74
2024/04/06 03:01:36;;;;;;;1.63;0.65;;;;;;;12.42;100.00;100452.69;5182972;28;20021;-74
2024/04/06 03:04:06;;;;;;;1.00;0.60;;;;;;;12.49;100.00;100445.38;5178321;28;20029;-74
2024/04/06 03:06:36;;;;;;;2.15;0.63;;;;;;;12.45;100.00;100452.53;5182455;28;20518;-74
2024/04/06 03:09:07;;;;;;;1.25;0.70;;;;;;;12.39;100.00;100446.72;5179737;28;20033;-74
2024/04/06 03:11:37;;;;;;;1.17;0.63;;;;;;;12.21;100.00;100443.16;5196476;28;20681;-74
2024/04/06 03:14:08;;;;;;;2.05;0.85;;;;;;;12.12;100.00;100446.16;5198940;28;20025;-74
2024/04/06 03:16:38;;;;;;;1.10;0.70;;;;;;;12.08;100.00;100449.84;5200501;28;20609;-74
2024/04/06 03:19:09;;;;;;;1.23;0.65;;;;;;;12.11;100.00;100438.41;5202372;28;20036;-74
2024/04/06 03:21:39;;;;;;;0.88;0.50;;;;;;;12.09;100.00;100443.69;5195885;28;20105;-75
2024/04/06 03:24:09;;;;;;;0.52;0.50;;;;;;;12.13;100.00;100433.94;5198902;28;20025;-74
2024/04/06 03:26:43;;;;;;;1.48;0.65;;;;;;;12.05;100.00;100431.66;5199559;28;20581;-74
2024/04/06 03:29:13;;;;;;;1.23;0.60;;;;;;;12.03;100.00;100436.09;5201225;28;20056;-73
2024/04/06 03:31:44;;;;;;;1.17;0.60;;;;;;;12.02;100.00;100439.66;5194194;28;20053;-74
2024/04/06 03:34:14;;;;;;;1.35;0.60;;;;;;;12.02;100.00;100442.25;5182269;28;20028;-72
2024/04/06 03:36:45;;;;;;;1.80;0.60;;;;;;;12.10;100.00;100450.63;5202015;28;20392;-74
2024/04/06 03:39:15;;;;;;;1.63;0.88;;;;;;;12.04;100.00;100452.66;5203634;28;20241;-72
2024/04/06 03:41:46;;;;;;;3.25;0.95;;;;;;;12.08;100.00;100462.06;5185437;28;20033;-74
2024/04/06 03:44:16;;;;;;;0.85;0.55;;;;;;;12.14;100.00;100462.66;5183791;28;20238;-74
2024/04/06 03:46:46;;;;;;;1.50;0.73;;;;;;;12.17;100.00;100464.31;5186811;28;20382;-74
2024/04/06 03:49:16;;;;;;;2.00;0.80;;;;;;;12.21;100.00;100458.00;5204950;28;20029;-75
2024/04/06 03:51:47;;;;;;;1.55;0.90;;;;;;;12.22;100.00;100463.19;5184566;28;20053;-75
2024/04/06 03:54:17;;;;;;;1.73;0.88;;;;;;;12.17;100.00;100465.19;5201359;28;20056;-74
2024/04/06 03:56:48;;;;;;;1.60;0.60;;;;;;;12.15;100.00;100463.53;5204284;28;20079;-74
2024/04/06 03:59:18;;;;;;;2.10;0.80;;;;;;;12.25;100.00;100464.81;5203653;28;20719;-74
2024/04/06 04:01:48;;;;;;;1.63;0.70;;;;;;;12.13;100.00;100465.38;5201822;28;20040;-74
2024/04/06 04:04:19;;;;;;;1.77;1.00;;;;;;;12.14;100.00;100462.66;5206473;28;20526;-73
2024/04/06 04:06:49;;;;;;;1.92;0.98;;;;;;;12.17;100.00;100457.31;5204572;28;20017;-75
2024/04/06 04:09:19;;;;;;;1.23;0.80;;;;;;;12.24;100.00;100461.34;5207380;28;20051;-75
2024/04/06 04:11:50;;;;;;;1.40;0.82;;;;;;;12.22;100.00;100455.34;5202650;28;20031;-74
2024/04/06 04:14:21;;;;;;;2.88;1.20;;;;;;;12.20;100.00;100470.28;5204726;28;20029;-74
2024/04/06 04:16:51;;;;;;;2.30;0.95;;;;;;;12.17;100.00;100462.56;5186757;28;20021;-74
2024/04/06 04:19:21;;;;;;;1.50;0.75;;;;;;;12.19;100.00;100463.34;5200413;28;20571;-75
2024/04/06 04:21:52;;;;;;;0.90;0.63;;;;;;;12.39;100.00;100465.94;5201233;28;20485;-74
2024/04/06 04:24:22;;;;;;;1.33;0.77;;;;;;;12.24;100.00;100473.59;5183660;28;20071;-74
2024/04/06 04:26:52;;;;;;;1.17;0.70;;;;;;;12.27;100.00;100479.56;5186647;28;20091;-75
2024/04/06 04:29:23;;;;;;;1.48;0.70;;;;;;;12.23;100.00;100490.25;5205461;28;20058;-72
2024/04/06 04:31:53;;;;;;;0.95;0.70;;;;;;;12.06;100.00;100490.97;5184223;28;20091;-74
2024/04/06 04:34:23;;;;;;;1.42;0.80;;;;;;;12.05;100.00;100486.66;5184814;28;20163;-74
2024/04/06 04:36:53;;;;;;;2.10;0.70;;;;;;;11.97;100.00;100491.34;5205642;28;20029;-74
2024/04/06 04:39:24;;;;;;;1.25;0.70;;;;;;;11.98;100.00;100484.38;5185511;28;20368;-74
2024/04/06 04:41:54;;;;;;;3.08;0.70;;;;;;;12.02;100.00;100492.03;5205417;28;20370;-75
2024/04/06 04:44:26;;;;;;;0.88;0.60;;;;;;;11.94;100.00;100494.13;5201402;28;20502;-72
2024/04/06 04:46:56;;;;;;;0.77;0.47;;;;;;;11.92;100.00;100498.56;5205254;28;20412;-75
2024/04/06 04:49:27;;;;;;;1.45;0.68;;;;;;;11.79;100.00;100500.00;5205661;28;20029;-74
2024/04/06 04:51:57;;;;;;;0.77;0.57;;;;;;;11.81;100.00;100498.16;5198322;28;20585;-75
2024/04/06 04:54:28;;;;;;;1.02;0.50;;;;;;;11.93;100.00;100488.97;5204290;28;20507;-74
2024/04/06 04:56:58;;;;;;;1.42;0.40;;;;;;;11.87;100.00;100487.44;5203631;28;20075;-75
2024/04/06 04:59:28;;;;;;;0.80;0.50;;;;;;;11.87;100.00;100476.09;5186029;28;20453;-75
2024/04/06 05:01:59;;;;;;;0.90;0.50;;;;;;;11.92;100.00;100464.53;5203551;28;20017;-74
2024/04/06 05:04:29;;;;;;;1.27;0.40;;;;;;;11.92;100.00;100456.66;5202850;28;20025;-75
2024/04/06 05:06:59;;;;;;;1.65;0.68;;;;;;;11.93;100.00;100468.84;5201754;28;20017;-75
2024/04/06 05:09:30;;;;;;;0.90;0.57;;;;;;;12.09;100.00;100485.59;5200983;28;20477;-75
2024/04/06 05:12:00;;;;;;;0.70;0.50;;;;;;;12.06;100.00;100475.25;5215911;22;20041;-74
2024/04/06 05:14:31;;;;;;;3.08;0.85;;;;;;;12.13;100.00;100471.44;5204159;28;20043;-76
2024/04/06 05:17:01;;;;;;;1.02;0.55;;;;;;;12.20;100.00;100457.19;5186091;28;20081;-74
2024/04/06 05:19:31;;;;;;;2.63;0.60;;;;;;;12.22;100.00;100468.44;5205476;28;20650;-74
2024/04/06 05:22:02;;;;;;;1.75;0.60;;;;;;;12.26;100.00;100470.00;5210137;28;20382;-75
2024/04/06 05:24:32;;;;;;;2.65;0.60;;;;;;;12.36;100.00;100473.94;5206699;28;20107;-76
2024/04/06 05:27:02;;;;;;;0.73;0.50;;;;;;;12.41;100.00;100477.19;5202992;28;20037;-75
2024/04/06 05:29:33;;;;;;;0.52;0.35;;;;;;;12.56;100.00;100473.88;5202298;28;20373;-76
2024/04/06 05:32:03;;;;;;;0.80;0.50;;;;;;;12.58;100.00;100465.94;5207065;28;20407;-76
2024/04/06 05:34:34;;;;;;;0.57;0.47;;;;;;;12.72;100.00;100480.13;5187114;28;20488;-76
2024/04/06 05:37:05;;;;;;;0.93;0.40;;;;;;;12.76;100.00;100489.56;5210582;28;20032;-75
2024/04/06 05:39:36;;;;;;;0.65;0.43;;;;;;;12.83;100.00;100472.59;5201808;28;20655;-75
2024/04/06 05:42:06;;;;;;;1.02;0.60;;;;;;;12.97;100.00;100488.59;5200366;28;20048;-76
2024/04/06 05:44:36;;;;;;;1.17;0.68;;;;;;;12.85;100.00;100488.28;5185847;28;20117;-75
2024/04/06 05:47:07;;;;;;;0.55;0.38;;;;;;;12.98;100.00;100496.41;5190198;28;20116;-75
2024/04/06 05:49:37;;;;;;;1.23;0.50;;;;;;;13.14;100.00;100496.53;5205079;28;20528;-75
2024/04/06 05:52:07;;;;;;;0.50;0.40;;;;;;;13.34;100.00;100499.03;5209891;28;20084;-76
2024/04/06 05:54:37;;;;;;;1.15;0.57;;;;;;;13.53;100.00;100499.84;5205841;28;20068;-75
2024/04/06 05:57:08;;;;;;;0.77;0.50;;;;;;;13.70;100.00;100505.13;5208068;28;20021;-75
2024/04/06 05:59:38;;;;;;;1.17;0.47;;;;;;;13.89;100.00;100492.81;5198730;28;20051;-73
2024/04/06 06:02:08;;;;;;;2.03;0.52;;;;;;;14.03;100.00;100499.06;5207073;28;20032;-76
2024/04/06 06:04:38;;;;;;;1.13;0.60;;;;;;;14.06;100.00;100500.69;5182338;28;20114;-75
2024/04/06 06:07:09;;;;;;;1.05;0.40;;;;;;;14.18;100.00;100503.56;5207279;28;20040;-75
2024/04/06 06:09:39;;;;;;;0.80;0.40;;;;;;;14.30;100.00;100500.31;5198381;28;20429;-73
2024/04/06 06:12:09;;;;;;;3.08;0.75;;;;;;;14.19;100.00;100489.50;5200069;28;20079;-76
2024/04/06 06:14:40;;;;;;;2.70;0.88;;;;;;;14.23;100.00;100487.56;5197898;28;20111;-76
2024/04/06 06:17:10;;;;;;;0.88;0.70;;;;;;;14.27;100.00;100499.63;5202480;28;20048;-75
2024/04/06 06:19:40;;;;;;;0.90;0.50;;;;;;;14.35;100.00;100523.72;5200290;28;20501;-76
2024/04/06 06:22:11;;;;;;;0.73;0.40;;;;;;;14.36;100.00;100525.41;5203330;28;20025;-76
2024/04/06 06:24:42;;;;;;;1.40;0.60;;;;;;;14.38;100.00;100536.69;5202422;28;20466;-75
2024/04/06 06:27:12;;;;;;;0.82;0.50;;;;;;;14.38;100.00;100529.69;5208268;28;20104;-75
2024/04/06 06:29:43;;;;;;;0.73;0.50;;;;;;;14.34;100.00;100522.88;5198965;28;20176;-72
2024/04/06 06:32:13;;;;;;;0.82;0.40;;;;;;;14.40;100.00;100530.44;5206762;28;20033;-76
2024/04/06 06:34:44;;;;;;;0.65;0.40;;;;;;;14.51;100.00;100529.88;5201956;28;20037;-72
2024/04/06 06:37:15;;;;;;;0.70;0.40;;;;;;;14.58;100.00;100539.19;5209142;28;20060;-72
2024/04/06 06:39:46;;;;;;;1.10;0.70;;;;;;;14.67;100.00;100544.81;5180795;28;20022;-72
2024/04/06 06:42:16;;;;;;;1.30;0.65;;;;;;;14.97;100.00;100556.31;5198130;28;20147;-72
2024/04/06 06:44:46;;;;;;;1.25;0.50;;;;;;;15.10;100.00;100550.31;5199021;28;20514;-73
2024/04/06 06:47:17;;;;;;;1.35;0.60;;;;;;;15.27;100.00;100555.53;5201172;28;20026;-73
2024/04/06 06:49:47;;;;;;;0.75;0.50;;;;;;;15.41;100.00;100547.75;5198795;28;20388;-72
2024/04/06 06:52:17;;;;;;;1.15;0.60;;;;;;;15.63;100.00;100555.28;5182956;28;20029;-72
2024/04/06 06:54:47;;;;;;;1.35;0.40;;;;;;;15.75;100.00;100552.81;5199638;28;20029;-73
2024/04/06 06:57:18;;;;;;;0.90;0.45;;;;;;;16.15;100.00;100546.06;5202571;28;20575;-73
2024/04/06 06:59:48;;;;;;;0.70;0.50;;;;;;;16.39;100.00;100553.41;5199462;28;20212;-72
2024/04/06 07:02:18;;;;;;;1.25;0.55;;;;;;;16.84;100.00;100548.00;5195790;28;20090;-72
2024/04/06 07:04:49;;;;;;;0.65;0.38;;;;;;;18.77;92.36;100538.59;5194658;28;20036;-74
2024/04/06 07:07:19;;;;;;;1.33;0.60;;;;;;;21.16;83.66;100526.66;5195595;28;20034;-73
2024/04/06 07:09:49;;;;;;;0.93;0.38;;;;;;;22.01;76.53;100532.91;5197389;28;20044;-73
2024/04/06 07:12:19;;;;;;;1.00;0.40;;;;;;;23.90;71.19;100534.84;5201858;28;20060;-73
2024/04/06 07:14:50;;;;;;;0.83;0.50;;;;;;;25.04;65.92;100540.84;5182841;28;20032;-74
2024/04/06 07:17:20;;;;;;;1.27;0.40;;;;;;;24.77;64.94;100538.16;5200622;28;20647;-73
2024/04/06 07:19:51;;;;;;;0.50;0.30;;;;;;;24.56;67.40;100540.16;5199844;28;20108;-74
2024/04/06 07:22:21;;;;;;;1.33;0.30;;;;;;;25.66;64.33;100538.31;5199823;28;20566;-73
2024/04/06 07:24:52;;;;;;;1.33;0.40;;;;;;;24.93;67.89;100544.56;5200146;28;20033;-73
2024/04/06 07:27:22;;;;;;;0.43;0.30;;;;;;;25.72;65.26;100532.34;5204696;28;20036;-71
2024/04/06 07:29:52;;;;;;;0.67;0.30;;;;;;;25.47;63.28;100538.44;5198685;28;20029;-73
2024/04/06 07:32:22;;;;;;;0.70;0.37;;;;;;;26.60;62.46;100531.38;5198797;28;20476;-71
2024/04/06 07:34:53;;;;;;;1.03;0.37;;;;;;;25.72;63.37;100532.34;5197358;28;20705;-75
2024/04/06 07:37:23;;;;;;;0.65;0.30;;;;;;;25.36;66.83;100533.28;5197960;28;20294;-71
2024/04/06 07:39:54;;;;;;;1.38;0.43;;;;;;;25.37;65.40;100529.63;5197850;28;20484;-73
2024/04/06 07:42:24;;;;;;;0.65;0.32;;;;;;;25.39;64.33;100530.31;5199419;28;20470;-73
2024/04/06 07:44:54;;;;;;;0.50;0.20;;;;;;;24.87;65.52;100537.13;5200617;28;20036;-74
2024/04/06 07:47:25;;;;;;;2.23;0.17;;;;;;;25.16;64.14;100532.50;5206180;28;20033;-74
2024/04/06 07:49:56;;;;;;;0.60;0.25;;;;;;;24.24;67.69;100526.25;5184351;28;20272;-73
2024/04/06 07:52:26;;;;;;;0.57;0.30;;;;;;;24.87;66.67;100520.22;5203011;28;20037;-74
2024/04/06 07:54:56;;;;;;;0.40;0.20;;;;;;;24.99;65.38;100521.75;5185961;28;20025;-75
2024/04/06 07:57:27;;;;;;;1.17;0.20;;;;;;;25.58;62.88;100512.28;5201318;28;20762;-72
2024/04/06 07:59:58;;;;;;;0.50;0.20;;;;;;;25.73;64.58;100512.59;5182189;28;20295;-72
2024/04/06 08:02:31;;;;;;;1.17;0.22;;;;;;;25.12;65.73;100506.19;5200346;28;20247;-72
2024/04/06 08:05:01;;;;;;;0.68;0.20;;;;;;;26.44;63.50;100499.03;5189680;28;20032;-75
2024/04/06 08:07:33;;;;;;;0.10;0.10;;;;;;;25.51;65.46;100502.34;5202085;28;20029;-74
2024/04/06 08:10:15;;;;;;;1.05;0.30;;;;;;;25.67;64.24;100505.19;5203768;28;20313;-74
2024/04/06 08:12:46;;;;;;;0.93;0.35;;;;;;;26.52;62.47;100500.97;5199513;28;20033;-73
2024/04/06 08:18:25;;;;;;;5.38;1.20;;;;;;;25.87;64.60;100504.91;5255730;27;20852;-71
2024/04/06 08:20:55;;;;;;;3.83;0.60;;;;;;;25.76;63.79;100506.94;5261414;28;20094;-73
2024/04/06 08:23:25;;;;;;;1.30;0.70;;;;;;;28.10;60.25;100501.78;5263459;28;20042;-73
2024/04/06 08:25:56;;;;;;;2.70;0.57;;;;;;;27.51;59.89;100507.34;5258496;28;20024;-73
2024/04/06 08:28:26;;;;;;;2.35;0.60;;;;;;;26.25;62.27;100503.75;5264481;28;20373;-72
2024/04/06 08:30:56;;;;;;;3.53;0.82;;;;;;;26.05;63.48;100502.22;5251974;28;20034;-72
2024/04/06 08:33:27;;;;;;;1.17;0.43;;;;;;;27.14;60.61;100493.47;5254268;28;20097;-73
2024/04/06 08:36:01;;;;;;;2.25;0.80;;;;;;;25.26;62.95;100492.34;5261095;28;20376;-73
2024/04/06 08:38:31;;;;;;;1.80;0.60;;;;;;;25.28;63.98;100482.34;5256719;28;20038;-69
2024/04/06 08:41:08;;;;;;;1.97;0.70;;;;;;;27.74;60.98;100468.13;5253052;28;20032;-73
2024/04/06 08:43:51;;;;;;;1.08;0.63;;;;;;;27.55;59.25;100469.25;5260278;28;20751;-70
2024/04/06 08:46:22;;;;;;;2.28;0.60;;;;;;;29.31;57.74;100464.53;5249066;28;20297;-71
2024/04/06 08:48:53;;;;;;;3.45;0.60;;;;;;;28.08;59.77;100453.53;5250345;28;20084;-72
2024/04/06 08:51:27;;;;;;;1.88;0.80;;;;;;;26.91;60.39;100452.91;5263067;28;20048;-73
2024/04/06 08:53:57;;;;;;;1.85;0.50;;;;;;;27.24;62.50;100449.38;5251339;28;20032;-73
2024/04/06 08:56:29;;;;;;;2.47;0.80;;;;;;;26.57;63.54;100450.38;5264030;28;20039;-73
2024/04/06 08:59:03;;;;;;;1.70;0.65;;;;;;;26.49;63.86;100463.75;5252940;28;20066;-72
2024/04/06 09:01:33;;;;;;;1.92;0.73;;;;;;;25.80;62.95;100460.13;5253598;28;20471;-71
2024/04/06 09:04:04;;;;;;;1.60;0.60;;;;;;;25.38;63.44;100477.75;5261769;28;20063;-73
2024/04/06 09:06:34;;;;;;;1.63;0.60;;;;;;;25.08;64.89;100461.97;5259507;28;20769;-72
2024/04/06 09:09:06;;;;;;;2.93;0.70;;;;;;;24.67;66.11;100467.81;5254082;28;20027;-71
2024/04/06 09:11:38;;;;;;;1.92;0.77;;;;;;;23.81;68.52;100472.41;5257205;28;20277;-72
2024/04/06 09:14:08;;;;;;;1.70;0.73;;;;;;;24.11;68.63;100461.59;5256448;28;20089;-72
2024/04/06 09:16:39;;;;;;;2.78;0.93;;;;;;;24.04;68.95;100473.81;5244116;28;20048;-72
2024/04/06 09:19:09;;;;;;;1.77;0.80;;;;;;;24.72;67.25;100480.75;5244095;28;20400;-74
2024/04/06 09:21:40;;;;;;;2.42;0.80;;;;;;;24.68;66.46;100477.50;5245576;28;20051;-73
2024/04/06 09:24:12;;;;;;;2.83;0.80;;;;;;;26.60;63.81;100472.38;5248964;28;20027;-74
2024/04/06 09:26:45;;;;;;;3.28;0.82;;;;;;;27.11;61.30;100450.84;5245030;28;20016;-70
2024/04/06 09:29:16;;;;;;;4.03;0.95;;;;;;;27.29;62.54;100454.25;5242978;28;20040;-71
2024/04/06 09:31:47;;;;;;;2.15;0.80;;;;;;;26.73;63.13;100445.09;5245611;28;20028;-73
2024/04/06 09:34:18;;;;;;;3.60;0.82;;;;;;;26.21;62.43;100440.72;5248693;28;20043;-69
2024/04/06 09:36:56;;;;;;;1.80;0.75;;;;;;;26.02;66.00;100438.25;5244411;28;20024;-71
2024/04/06 09:39:31;;;;;;;2.20;0.80;;;;;;;25.40;65.41;100449.88;5236851;28;20297;-70
2024/04/06 09:42:05;;;;;;;2.10;0.90;;;;;;;25.40;66.47;100446.34;5245685;28;20865;-73
2024/04/06 09:44:35;;;;;;;1.73;0.82;;;;;;;25.52;65.95;100453.16;5246497;28;20043;-72
2024/04/06 09:47:10;;;;;;;2.20;0.93;;;;;;;25.49;68.50;100451.63;5245720;28;20403;-72
2024/04/06 09:49:42;;;;;;;2.33;0.80;;;;;;;24.85;70.59;100461.56;5247445;28;20062;-73
2024/04/06 09:52:12;;;;;;;3.38;1.00;;;;;;;24.86;68.84;100454.38;5247104;28;20048;-73
2024/04/06 09:54:43;;;;;;;5.20;1.02;;;;;;;24.60;71.07;100461.38;5242069;28;20043;-70
2024/04/06 09:57:14;;;;;;;3.15;0.95;;;;;;;24.36;71.13;100470.84;5244205;28;20036;-72
2024/04/06 09:59:45;;;;;;;3.30;1.05;;;;;;;24.13;67.81;100450.75;5242572;28;20538;-72
2024/04/06 10:02:22;;;;;;;3.28;1.00;;;;;;;24.21;69.98;100442.88;5245585;28;20028;-73
2024/04/06 10:04:56;;;;;;;3.03;1.00;;;;;;;23.96;68.38;100449.66;5238157;28;20040;-71
2024/04/06 10:07:28;;;;;;;2.75;1.10;;;;;;;24.20;71.76;100446.53;5244455;28;20493;-71
2024/04/06 10:10:06;;;;;;;2.90;1.00;;;;;;;24.08;68.83;100443.16;5237303;28;20040;-72
2024/04/06 10:12:38;;;;;;;2.72;0.98;;;;;;;24.02;70.52;100445.59;5242643;28;20028;-73
2024/04/06 10:15:27;;;;;;;3.60;1.17;;;;;;;23.51;71.62;100456.50;5247965;28;20105;-70
2024/04/06 10:17:58;;;;;;;2.15;0.90;;;;;;;23.61;73.10;100460.03;5241906;28;20420;-72
2024/04/06 10:20:31;;;;;;;3.22;0.90;;;;;;;24.00;72.45;100456.41;5241678;28;20068;-69
2024/04/06 10:23:01;;;;;;;2.05;0.90;;;;;;;23.72;70.38;100454.53;5240544;28;20515;-72
2024/04/06 10:25:34;;;;;;;4.57;0.90;;;;;;;23.81;71.91;100456.38;5239131;28;20060;-70
2024/04/06 10:28:09;;;;;;;3.38;1.00;;;;;;;23.71;71.16;100454.69;5240084;28;20361;-73
2024/04/06 10:30:40;;;;;;;1.80;0.70;;;;;;;23.77;72.54;100451.47;5242100;28;20072;-73
2024/04/06 10:33:10;;;;;;;3.17;0.93;;;;;;;23.99;72.08;100449.38;5240378;28;20569;-73
2024/04/06 10:35:41;;;;;;;3.58;1.00;;;;;;;24.22;73.60;100449.91;5244108;28;20465;-74
2024/04/06 10:38:11;;;;;;;2.38;0.90;;;;;;;24.37;72.44;100438.59;5235384;28;20119;-73
2024/04/06 10:40:42;;;;;;;1.92;0.77;;;;;;;24.46;72.69;100445.78;5236841;28;20075;-71
2024/04/06 10:43:12;;;;;;;5.32;0.90;;;;;;;24.28;71.78;100450.19;5252686;28;20043;-72
2024/04/06 10:45:42;;;;;;;3.57;0.90;;;;;;;24.12;72.76;100444.59;5247735;28;20115;-70
2024/04/06 10:48:13;;;;;;;2.33;0.80;;;;;;;24.10;75.58;100433.19;5252785;28;20753;-72
2024/04/06 10:50:45;;;;;;;2.78;0.90;;;;;;;23.87;74.93;100444.34;5245354;28;20145;-71
2024/04/06 10:53:15;;;;;;;2.63;1.00;;;;;;;23.70;74.99;100437.81;5242069;28;20115;-73
2024/04/06 10:55:47;;;;;;;3.90;1.00;;;;;;;23.99;75.65;100440.50;5237717;28;20040;-72
2024/04/06 10:58:18;;;;;;;3.38;1.23;;;;;;;24.00;75.27;100435.03;5236438;28;20030;-70
2024/04/06 11:00:49;;;;;;;3.70;1.00;;;;;;;23.91;75.34;100433.19;5231041;28;20159;-72
2024/04/06 11:03:22;;;;;;;3.47;1.15;;;;;;;23.73;75.12;100428.72;5237282;28;20024;-70
2024/04/06 11:05:53;;;;;;;3.00;0.90;;;;;;;23.45;74.35;100437.53;5245101;28;20040;-72
2024/04/06 11:08:23;;;;;;;5.07;1.17;;;;;;;23.47;76.61;100435.56;5244310;28;20062;-72
2024/04/06 11:10:55;;;;;;;3.08;1.10;;;;;;;23.67;77.61;100440.78;5250532;22;20060;-71
2024/04/06 11:13:25;;;;;;;2.83;1.00;;;;;;;23.75;77.23;100437.41;5187223;28;20049;-73
2024/04/06 11:15:56;;;;;;;4.43;1.05;;;;;;;23.61;76.70;100436.03;5186575;28;20603;-75
2024/04/06 11:18:26;;;;;;;2.30;1.00;;;;;;;23.57;78.11;100434.59;5193568;28;20045;-72
2024/04/06 11:20:56;;;;;;;3.38;1.08;;;;;;;23.64;76.08;100432.19;5190051;28;20026;-73
2024/04/06 11:23:27;;;;;;;4.10;1.00;;;;;;;23.47;76.04;100431.09;5171104;28;20192;-72
2024/04/06 11:26:01;;;;;;;2.90;1.02;;;;;;;23.36;76.74;100438.38;5173318;28;20064;-74
2024/04/06 11:28:32;;;;;;;2.40;0.85;;;;;;;23.14;78.43;100442.13;5172286;28;20468;-71
2024/04/06 11:31:02;;;;;;;1.63;0.90;;;;;;;23.66;76.83;100436.44;5179240;28;20038;-75
2024/04/06 11:33:33;;;;;;;2.70;1.13;;;;;;;23.95;78.72;100426.63;5171902;28;20110;-71
2024/04/06 11:36:04;;;;;;;4.97;1.08;;;;;;;23.78;75.29;100429.97;5179684;28;20044;-73
2024/04/06 11:38:34;;;;;;;1.88;0.75;;;;;;;23.93;76.58;100428.59;5176668;28;20732;-74